Time;durP1;ratioP1;P1;durP2;ratioP2;P2;SDS_P1;SDS_P2;PMS_P1;PMS_P2;Temp;Humidity;BMP_temperature;BMP_pressure;BME280_temperature;BME280_humidity;BME280_pressure;Samples;Min_cycle;Max_cycle;Signal;HPM_P1;HPM_P2
2021/07/18 00:00:56;;;;;;;0.30;0.30;;;;;;;20.88;66.68;97853.38;4937486;29;20483;-82
2021/07/18 00:03:21;;;;;;;1.55;1.30;;;;;;;21.00;67.11;97870.84;4937315;29;20038;-81
2021/07/18 00:05:47;;;;;;;1.05;0.77;;;;;;;20.87;67.33;97840.59;4937266;29;20086;-82
2021/07/18 00:08:12;;;;;;;1.02;0.60;;;;;;;21.03;67.40;97867.00;4937887;29;20030;-82
2021/07/18 00:10:38;;;;;;;1.17;0.40;;;;;;;20.70;67.20;97806.34;4954817;29;20035;-82
2021/07/18 00:13:03;;;;;;;0.77;0.77;;;;;;;21.08;66.51;97857.75;4937325;29;20031;-82
2021/07/18 00:15:29;;;;;;;0.55;0.52;;;;;;;21.15;66.55;97859.22;4937182;29;20201;-82
2021/07/18 00:17:56;;;;;;;0.50;0.50;;;;;;;20.99;67.43;97841.25;4937166;29;20031;-82
2021/07/18 00:20:22;;;;;;;0.50;0.50;;;;;;;21.09;67.63;97862.09;4937059;29;20035;-82
2021/07/18 00:22:47;;;;;;;0.55;0.55;;;;;;;21.12;67.46;97867.38;4937131;29;20031;-82
2021/07/18 00:25:13;;;;;;;0.55;0.55;;;;;;;20.82;67.59;97829.44;4936986;29;20055;-82
2021/07/18 00:27:40;;;;;;;0.60;0.60;;;;;;;20.90;68.06;97855.66;4937063;29;20027;-82
2021/07/18 00:30:07;;;;;;;0.98;0.45;;;;;;;20.96;68.17;97865.53;4936921;29;20117;-81
2021/07/18 00:32:33;;;;;;;0.30;0.30;;;;;;;20.78;68.16;97865.47;4937100;29;20129;-82
2021/07/18 00:34:58;;;;;;;0.60;0.60;;;;;;;20.73;69.47;97864.25;4936944;29;20374;-82
2021/07/18 00:37:24;;;;;;;0.77;0.77;;;;;;;20.82;67.42;97877.94;4957733;29;20047;-82
2021/07/18 00:39:49;;;;;;;0.40;0.30;;;;;;;20.71;67.28;97856.34;4940943;29;20039;-82
2021/07/18 00:42:19;;;;;;;1.30;0.70;;;;;;;20.71;67.02;97856.34;4940882;29;20391;-81
2021/07/18 00:44:45;;;;;;;0.57;0.57;;;;;;;20.62;68.08;97848.28;4940773;29;20027;-82
2021/07/18 00:47:11;;;;;;;0.60;0.60;;;;;;;20.59;68.22;97859.78;4940716;29;20043;-82
2021/07/18 00:49:37;;;;;;;0.50;0.40;;;;;;;20.55;68.94;97864.94;4940784;29;20038;-82
2021/07/18 00:52:03;;;;;;;0.60;0.60;;;;;;;20.31;69.00;97846.00;4940767;29;20389;-82
2021/07/18 00:54:29;;;;;;;0.40;0.32;;;;;;;20.30;69.43;97856.47;4940623;29;20528;-82
2021/07/18 00:56:57;;;;;;;0.40;0.40;;;;;;;20.22;70.19;97863.16;4940654;29;20035;-82
2021/07/18 00:59:23;;;;;;;0.75;0.70;;;;;;;20.13;69.38;97836.19;4957724;29;20034;-82
2021/07/18 01:01:50;;;;;;;0.68;0.68;;;;;;;20.22;69.72;97849.13;4957733;29;20046;-82
2021/07/18 01:04:15;;;;;;;2.13;1.02;;;;;;;20.21;70.20;97858.81;4940701;29;20028;-81
2021/07/18 01:06:41;;;;;;;0.77;0.77;;;;;;;20.18;70.28;97866.25;4940500;29;20116;-82
2021/07/18 01:09:06;;;;;;;1.42;1.15;;;;;;;20.11;69.48;97841.56;4940339;29;20034;-82
2021/07/18 01:11:32;;;;;;;0.45;0.45;;;;;;;20.07;70.06;97855.13;4940672;29;20038;-82
2021/07/18 01:13:57;;;;;;;0.30;0.30;;;;;;;20.03;70.83;97856.66;4940330;29;20031;-82
2021/07/18 01:16:23;;;;;;;1.40;0.75;;;;;;;20.01;71.05;97845.22;4957546;29;20036;-82
2021/07/18 01:18:48;;;;;;;0.43;0.43;;;;;;;20.17;71.10;97853.50;4940749;29;20031;-83
2021/07/18 01:21:14;;;;;;;1.63;0.65;;;;;;;20.05;71.97;97824.03;4940637;29;20042;-82
2021/07/18 01:23:40;;;;;;;4.60;0.88;;;;;;;20.18;72.01;97843.03;4957465;29;20042;-82
2021/07/18 01:26:06;;;;;;;0.55;0.55;;;;;;;20.36;71.48;97858.47;4940180;29;20023;-82
2021/07/18 01:28:32;;;;;;;1.23;1.23;;;;;;;20.34;71.61;97864.59;4939974;29;20027;-83
2021/07/18 01:30:58;;;;;;;1.02;0.93;;;;;;;20.31;72.13;97863.56;4940005;29;20094;-82
2021/07/18 01:33:24;;;;;;;0.65;0.65;;;;;;;20.11;72.09;97827.53;4957176;29;20027;-83
2021/07/18 01:35:49;;;;;;;3.17;1.60;;;;;;;20.07;71.45;97827.06;4939828;29;20039;-82
2021/07/18 01:38:15;;;;;;;0.35;0.35;;;;;;;20.27;71.54;97865.16;4939705;29;20051;-82
2021/07/18 01:40:41;;;;;;;0.50;0.50;;;;;;;20.28;71.72;97859.00;4939960;29;20027;-83
2021/07/18 01:43:07;;;;;;;0.63;0.63;;;;;;;20.33;72.16;97859.50;4939969;29;20027;-83
2021/07/18 01:45:32;;;;;;;0.52;0.52;;;;;;;20.36;71.92;97858.47;4939763;29;20118;-83
2021/07/18 01:47:58;;;;;;;0.65;0.65;;;;;;;20.35;71.86;97865.38;4939400;29;20093;-83
2021/07/18 01:50:25;;;;;;;0.52;0.52;;;;;;;20.38;71.22;97856.66;4939889;29;20030;-82
2021/07/18 01:52:53;;;;;;;3.35;0.63;;;;;;;20.35;71.32;97862.56;4939750;29;20455;-83
2021/07/18 01:55:22;;;;;;;2.15;1.63;;;;;;;20.26;71.31;97861.56;4939760;29;20027;-83
2021/07/18 01:57:48;;;;;;;0.50;0.50;;;;;;;20.20;72.35;97852.44;4939683;29;20031;-84
2021/07/18 02:00:14;;;;;;;1.27;1.17;;;;;;;20.25;71.49;97862.13;4939477;29;20122;-84
2021/07/18 02:02:47;;;;;;;0.80;0.80;;;;;;;20.09;72.34;97851.78;4940179;29;20031;-84
2021/07/18 02:05:13;;;;;;;1.50;1.40;;;;;;;20.22;72.07;97854.72;4939888;29;20491;-83
2021/07/18 02:07:39;;;;;;;0.40;0.40;;;;;;;20.08;72.69;97834.19;4939559;29;20039;-85
2021/07/18 02:10:06;;;;;;;0.20;0.20;;;;;;;20.19;72.82;97848.13;4939489;29;20526;-84
2021/07/18 02:12:33;;;;;;;0.22;0.22;;;;;;;20.20;72.20;97849.63;4939384;29;20518;-83
2021/07/18 02:14:58;;;;;;;0.35;0.35;;;;;;;20.16;72.08;97851.22;4956564;29;20030;-84
2021/07/18 02:17:24;;;;;;;4.13;0.82;;;;;;;20.26;72.08;97867.19;4956515;29;20031;-85
2021/07/18 02:19:49;;;;;;;0.60;0.60;;;;;;;20.15;72.76;97858.88;4939256;29;20082;-84
2021/07/18 02:22:15;;;;;;;0.20;0.20;;;;;;;20.10;73.11;97859.69;4956652;29;20027;-84
2021/07/18 02:24:40;;;;;;;1.30;0.95;;;;;;;19.91;73.12;97827.94;4939813;29;20027;-85
2021/07/18 02:27:07;;;;;;;1.58;1.48;;;;;;;20.14;73.60;97860.13;4956466;29;20034;-85
2021/07/18 02:29:33;;;;;;;0.30;0.30;;;;;;;20.00;73.84;97840.91;4938854;29;20034;-85
2021/07/18 02:31:58;;;;;;;0.50;0.50;;;;;;;20.05;73.27;97846.47;4939349;29;20035;-84
2021/07/18 02:34:24;;;;;;;0.60;0.60;;;;;;;20.06;73.86;97847.22;4939220;29;20051;-84
2021/07/18 02:36:49;;;;;;;12.68;1.55;;;;;;;20.09;73.69;97860.94;4938799;29;20043;-85
2021/07/18 02:39:15;;;;;;;0.85;0.73;;;;;;;20.17;74.16;97881.56;4939085;29;20031;-85
2021/07/18 02:41:40;;;;;;;4.07;1.13;;;;;;;20.08;74.48;97883.91;4956200;29;20035;-84
2021/07/18 02:44:07;;;;;;;0.80;0.68;;;;;;;19.86;74.66;97843.53;4939010;29;20050;-84
2021/07/18 02:46:33;;;;;;;0.50;0.50;;;;;;;19.85;74.60;97844.03;4939014;29;20121;-84
2021/07/18 02:48:59;;;;;;;0.73;0.73;;;;;;;19.94;75.13;97862.59;4939332;29;20105;-84
2021/07/18 02:51:24;;;;;;;1.25;1.15;;;;;;;19.59;75.48;97824.09;4938900;29;20481;-84
2021/07/18 02:53:50;;;;;;;0.52;0.50;;;;;;;19.85;76.04;97878.44;4938798;29;20038;-85
2021/07/18 02:56:16;;;;;;;0.40;0.40;;;;;;;19.64;76.36;97852.09;4939497;29;20035;-84
2021/07/18 02:58:41;;;;;;;0.88;0.82;;;;;;;19.81;76.15;97871.59;4937935;29;20487;-85
2021/07/18 03:01:06;;;;;;;1.33;0.80;;;;;;;19.81;76.38;97877.22;4938810;29;20085;-84
2021/07/18 03:03:32;;;;;;;0.80;0.60;;;;;;;19.50;76.07;97825.94;4939156;29;20027;-85
2021/07/18 03:05:57;;;;;;;0.50;0.50;;;;;;;19.66;76.32;97865.56;4938723;29;20145;-85
2021/07/18 03:08:23;;;;;;;0.60;0.60;;;;;;;19.56;76.13;97856.72;4938714;29;20509;-83
2021/07/18 03:10:48;;;;;;;2.50;1.17;;;;;;;19.70;75.73;97872.44;4939088;29;20062;-88
2021/07/18 03:13:13;;;;;;;0.63;0.57;;;;;;;19.68;75.53;97874.22;4939044;29;20034;-89
2021/07/18 03:15:39;;;;;;;0.90;0.90;;;;;;;19.75;75.99;97888.47;4938991;29;20039;-88
2021/07/18 03:18:06;;;;;;;0.90;0.90;;;;;;;19.73;75.77;97890.25;4939035;29;20062;-89
2021/07/18 03:20:33;;;;;;;1.90;1.50;;;;;;;19.81;75.68;97888.44;4956027;29;20027;-88
2021/07/18 03:22:58;;;;;;;1.17;0.85;;;;;;;19.79;75.93;97888.16;4938798;29;20038;-89
2021/07/18 03:25:23;;;;;;;0.70;0.70;;;;;;;20.01;74.78;97896.47;4938801;29;20024;-88
2021/07/18 03:27:49;;;;;;;0.35;0.35;;;;;;;19.94;73.86;97871.03;4938830;29;20483;-88
2021/07/18 03:30:16;;;;;;;0.57;0.57;;;;;;;20.05;72.72;97874.50;4955727;29;20103;-87
2021/07/18 03:32:42;;;;;;;0.70;0.70;;;;;;;19.94;72.48;97857.00;4938709;29;20043;-87
2021/07/18 03:35:08;;;;;;;0.40;0.40;;;;;;;20.29;72.35;97899.06;4938760;29;20028;-87
2021/07/18 03:37:35;;;;;;;0.20;0.20;;;;;;;20.24;72.89;97897.06;4938273;29;20055;-88
2021/07/18 03:40:00;;;;;;;0.90;0.80;;;;;;;20.27;72.41;97884.78;4938523;29;20031;-88
2021/07/18 03:42:26;;;;;;;1.83;0.55;;;;;;;20.41;72.54;97889.28;4938293;29;20035;-88
2021/07/18 03:44:51;;;;;;;0.32;0.28;;;;;;;20.54;74.02;97892.25;4938738;29;20088;-88
2021/07/18 03:47:17;;;;;;;0.60;0.60;;;;;;;20.54;73.82;97888.69;4938495;29;20031;-88
2021/07/18 03:49:42;;;;;;;0.75;0.75;;;;;;;20.89;72.66;97911.06;4955328;29;20033;-88
2021/07/18 03:52:08;;;;;;;0.88;0.88;;;;;;;21.06;71.25;97903.22;4938255;29;20035;-88
2021/07/18 03:54:33;;;;;;;1.13;1.00;;;;;;;21.22;69.63;97898.72;4938437;29;20031;-87
2021/07/18 03:56:59;;;;;;;1.15;1.00;;;;;;;21.59;68.90;97916.91;4938211;29;20069;-87
2021/07/18 03:59:24;;;;;;;2.00;0.88;;;;;;;21.67;67.99;97895.34;4938717;29;20067;-87
2021/07/18 04:01:50;;;;;;;1.50;1.27;;;;;;;21.95;68.55;97918.25;4955211;29;20050;-87
2021/07/18 04:04:16;;;;;;;0.65;0.55;;;;;;;22.03;66.91;97887.47;4938180;29;20395;-87
2021/07/18 04:06:41;;;;;;;4.40;1.55;;;;;;;22.35;65.92;97910.75;4938173;29;20031;-87
2021/07/18 04:09:07;;;;;;;1.00;1.00;;;;;;;22.52;66.12;97924.56;4937902;28;20167;-87
2021/07/18 04:11:32;;;;;;;1.73;1.25;;;;;;;22.53;65.50;97895.88;4937854;29;20097;-86
2021/07/18 04:13:58;;;;;;;1.33;0.93;;;;;;;22.90;64.54;97906.28;4937904;29;20032;-86
2021/07/18 04:16:23;;;;;;;0.50;0.50;;;;;;;23.19;63.79;97910.09;4937767;29;20099;-86
2021/07/18 04:18:48;;;;;;;2.28;1.00;;;;;;;23.25;63.03;97891.00;4937730;29;20028;-86
2021/07/18 04:21:19;;;;;;;1.00;1.00;;;;;;;23.21;63.08;97896.19;4954645;29;20035;-85
2021/07/18 04:23:45;;;;;;;0.93;0.70;;;;;;;23.55;62.45;97918.88;4937587;29;20027;-85
2021/07/18 04:26:10;;;;;;;0.40;0.40;;;;;;;23.99;61.82;97928.44;4954415;29;20035;-85
2021/07/18 04:28:36;;;;;;;1.27;0.90;;;;;;;24.30;60.66;97904.91;4954718;29;20030;-85
2021/07/18 04:31:01;;;;;;;2.53;2.03;;;;;;;24.37;60.52;97871.66;4937306;29;20035;-85
2021/07/18 04:33:26;;;;;;;0.95;0.90;;;;;;;24.69;58.72;97884.19;4937348;29;20082;-86
2021/07/18 04:35:52;;;;;;;1.00;1.00;;;;;;;25.11;57.96;97913.16;4954528;29;20030;-85
2021/07/18 04:38:17;;;;;;;0.40;0.40;;;;;;;25.43;57.41;97921.28;4954323;28;20051;-85
2021/07/18 04:40:44;;;;;;;0.30;0.30;;;;;;;25.75;56.04;97929.38;4937458;29;20051;-85
2021/07/18 04:43:10;;;;;;;1.63;1.52;;;;;;;26.07;55.75;97931.00;4954589;29;20112;-85
2021/07/18 04:45:35;;;;;;;0.63;0.63;;;;;;;26.20;55.11;97925.19;4955045;29;20039;-86
2021/07/18 04:48:01;;;;;;;0.68;0.68;;;;;;;26.57;54.74;97930.22;4937541;29;20027;-86
2021/07/18 04:50:27;;;;;;;1.13;0.82;;;;;;;26.62;54.09;97934.94;4937585;29;20035;-85
2021/07/18 04:52:53;;;;;;;1.20;1.10;;;;;;;26.85;52.84;97929.28;4937208;29;20118;-85
2021/07/18 04:55:20;;;;;;;0.40;0.40;;;;;;;27.01;51.76;97896.03;4954324;29;20043;-85
2021/07/18 04:57:45;;;;;;;0.73;0.73;;;;;;;27.45;51.48;97919.22;4937412;29;20146;-86
2021/07/18 05:00:17;;;;;;;17.20;2.03;;;;;;;27.61;50.41;97902.94;4937145;29;20511;-86
2021/07/18 05:02:42;;;;;;;2.42;0.45;;;;;;;27.76;50.36;97912.13;4937175;29;20122;-86
2021/07/18 05:05:09;;;;;;;1.05;1.00;;;;;;;28.19;50.05;97928.06;4954367;29;20089;-86
2021/07/18 05:07:44;;;;;;;0.50;0.50;;;;;;;28.65;49.33;97939.13;4954368;29;20031;-86
2021/07/18 05:10:09;;;;;;;0.47;0.47;;;;;;;28.83;48.68;97926.50;4937150;29;20114;-86
2021/07/18 05:12:36;;;;;;;0.77;0.77;;;;;;;29.08;48.10;97949.25;4937529;29;20115;-86
2021/07/18 05:15:01;;;;;;;0.50;0.50;;;;;;;29.17;47.24;97937.25;4937500;29;20102;-86
2021/07/18 05:17:27;;;;;;;2.20;1.10;;;;;;;29.34;48.15;97931.59;4937336;29;20492;-86
2021/07/18 05:19:53;;;;;;;3.05;1.23;;;;;;;29.73;47.03;97912.75;4937412;29;20087;-86
2021/07/18 05:22:18;;;;;;;2.35;0.35;;;;;;;30.16;45.33;97956.13;4955970;28;20085;-86
2021/07/18 05:24:44;;;;;;;0.98;0.65;;;;;;;30.58;45.43;97941.69;4940720;29;20145;-86
2021/07/18 05:27:09;;;;;;;0.93;0.82;;;;;;;30.76;44.07;97943.13;4940574;29;20041;-86
2021/07/18 05:29:34;;;;;;;0.88;0.73;;;;;;;31.14;44.30;97951.09;4957813;29;20483;-86
2021/07/18 05:32:00;;;;;;;1.02;1.02;;;;;;;31.07;43.10;97912.00;4940877;29;20035;-85
2021/07/18 05:34:25;;;;;;;1.95;1.08;;;;;;;31.52;43.44;97948.31;4957582;29;20089;-86
2021/07/18 05:36:51;;;;;;;0.68;0.65;;;;;;;32.20;42.98;97946.22;4940220;29;20059;-86
2021/07/18 05:39:16;;;;;;;0.47;0.40;;;;;;;32.72;41.26;97942.81;4940259;29;20043;-86
2021/07/18 05:41:41;;;;;;;1.92;0.85;;;;;;;32.26;41.57;97937.34;4940405;29;20044;-85
2021/07/18 05:44:07;;;;;;;0.30;0.30;;;;;;;32.77;40.09;97912.38;4940241;29;20538;-85
2021/07/18 05:46:32;;;;;;;0.93;0.88;;;;;;;33.17;39.82;97923.00;4940236;29;20031;-86
2021/07/18 05:48:58;;;;;;;1.25;1.05;;;;;;;34.19;38.23;97920.56;4939778;29;20054;-85
2021/07/18 05:51:23;;;;;;;3.13;1.77;;;;;;;35.19;36.77;97933.31;4939989;29;20122;-85
2021/07/18 05:53:48;;;;;;;1.33;1.02;;;;;;;35.90;35.55;97949.06;4939964;29;20491;-85
2021/07/18 05:56:14;;;;;;;1.92;0.50;;;;;;;36.25;34.68;97928.78;4939921;29;20035;-83
2021/07/18 05:58:39;;;;;;;0.80;0.80;;;;;;;37.05;33.64;97918.09;4957321;29;20094;-85
2021/07/18 06:01:05;;;;;;;0.50;0.38;;;;;;;37.17;32.13;97912.25;4956715;29;20023;-84
2021/07/18 06:03:32;;;;;;;1.80;0.70;;;;;;;37.68;31.29;97932.16;4939667;29;20115;-85
2021/07/18 06:05:57;;;;;;;1.35;1.25;;;;;;;38.45;30.42;97933.09;4939449;29;20117;-85
2021/07/18 06:08:23;;;;;;;0.60;0.60;;;;;;;38.94;30.25;97889.91;4939186;29;20110;-86
2021/07/18 06:10:48;;;;;;;4.38;1.23;;;;;;;39.69;28.80;97927.88;4940077;29;20063;-86
2021/07/18 06:13:14;;;;;;;1.45;1.10;;;;;;;38.20;29.62;97925.41;4939445;29;20482;-84
2021/07/18 06:15:39;;;;;;;0.80;0.75;;;;;;;37.68;31.34;97924.25;4939473;29;20531;-84
2021/07/18 06:18:04;;;;;;;2.17;0.88;;;;;;;36.95;32.54;97934.09;4956414;29;20027;-83
2021/07/18 06:20:30;;;;;;;3.88;0.88;;;;;;;37.86;31.35;97910.75;4939157;29;20035;-84
2021/07/18 06:22:55;;;;;;;1.30;1.20;;;;;;;37.73;30.85;97879.09;4938845;29;20126;-84
2021/07/18 06:25:21;;;;;;;0.65;0.60;;;;;;;37.86;31.09;97927.31;4939351;29;20027;-83
2021/07/18 06:27:47;;;;;;;2.15;0.90;;;;;;;37.95;30.78;97922.69;4939058;29;20484;-82
2021/07/18 06:30:13;;;;;;;0.77;0.77;;;;;;;38.92;29.50;97931.03;4938952;29;20031;-82
2021/07/18 06:32:40;;;;;;;4.63;2.70;;;;;;;39.04;30.59;97896.16;4939053;29;20404;-83
2021/07/18 06:35:07;;;;;;;1.30;0.80;;;;;;;40.05;28.58;97908.44;4956058;29;20031;-84
2021/07/18 06:37:32;;;;;;;3.03;0.95;;;;;;;39.95;28.14;97916.69;4938455;29;20054;-84
2021/07/18 06:39:57;;;;;;;0.70;0.60;;;;;;;39.40;29.20;97941.13;4956065;29;20091;-83
2021/07/18 06:42:23;;;;;;;1.60;1.50;;;;;;;40.16;27.84;97928.44;4955756;29;20054;-83
2021/07/18 06:44:48;;;;;;;1.17;0.60;;;;;;;39.76;28.57;97929.63;4938733;29;20024;-83
2021/07/18 06:47:14;;;;;;;0.85;0.73;;;;;;;40.08;27.00;97921.59;4938710;29;20038;-85
2021/07/18 06:49:39;;;;;;;1.55;0.95;;;;;;;40.02;27.34;97877.94;4938856;29;20031;-84
2021/07/18 06:52:05;;;;;;;7.25;0.95;;;;;;;40.45;27.46;97927.44;4938585;29;20031;-83
2021/07/18 06:54:30;;;;;;;7.95;1.88;;;;;;;40.10;27.61;97907.19;4938730;29;20027;-83
2021/07/18 06:56:56;;;;;;;1.00;0.88;;;;;;;39.88;27.67;97894.69;4938541;29;20513;-83
2021/07/18 06:59:21;;;;;;;1.30;0.95;;;;;;;40.37;27.19;97909.00;4938776;29;20069;-83
2021/07/18 07:01:47;;;;;;;0.43;0.43;;;;;;;40.19;27.69;97900.31;4938727;29;20039;-83
2021/07/18 07:04:12;;;;;;;1.70;1.13;;;;;;;38.91;29.40;97873.88;4955634;29;20027;-83
2021/07/18 07:06:37;;;;;;;2.28;1.83;;;;;;;41.52;25.75;97892.31;4938308;29;20411;-81
2021/07/18 07:09:03;;;;;;;1.42;0.73;;;;;;;41.11;25.39;97899.56;4938763;29;20027;-81
2021/07/18 07:11:29;;;;;;;9.40;1.90;;;;;;;40.34;26.29;97898.75;4938430;29;20053;-81
2021/07/18 07:13:54;;;;;;;2.05;1.35;;;;;;;40.35;25.89;97903.88;4955440;29;20029;-83
2021/07/18 07:16:20;;;;;;;0.22;0.22;;;;;;;39.74;27.85;97872.44;4938401;29;20459;-81
2021/07/18 07:18:47;;;;;;;1.40;1.30;;;;;;;40.65;26.10;97867.41;4938121;29;20455;-80
2021/07/18 07:21:13;;;;;;;1.27;1.13;;;;;;;39.79;27.57;97890.72;4938032;29;20042;-81
2021/07/18 07:23:39;;;;;;;0.63;0.60;;;;;;;40.18;27.23;97888.00;4938274;29;20030;-82
2021/07/18 07:26:05;;;;;;;0.73;0.73;;;;;;;39.00;28.94;97870.69;4938257;29;20035;-85
2021/07/18 07:28:32;;;;;;;0.68;0.40;;;;;;;37.71;30.17;97879.72;4938038;29;20114;-82
2021/07/18 07:30:58;;;;;;;1.30;1.20;;;;;;;37.80;30.94;97872.94;4937808;29;20039;-84
2021/07/18 07:33:24;;;;;;;8.30;1.20;;;;;;;38.09;30.34;97874.38;4937783;29;20031;-83
2021/07/18 07:35:51;;;;;;;1.10;0.98;;;;;;;38.97;29.63;97882.81;4955376;29;20039;-83
2021/07/18 07:38:16;;;;;;;0.70;0.70;;;;;;;39.30;28.57;97874.19;4937574;29;20050;-83
2021/07/18 07:40:42;;;;;;;0.38;0.38;;;;;;;39.85;27.79;97868.56;4937713;29;20036;-84
2021/07/18 07:43:07;;;;;;;2.35;1.60;;;;;;;39.89;26.81;97865.13;4954945;29;20024;-83
2021/07/18 07:45:33;;;;;;;0.63;0.63;;;;;;;39.52;27.88;97871.50;4954494;28;20088;-84
2021/07/18 07:47:59;;;;;;;4.40;1.00;;;;;;;38.30;29.14;97856.63;4954771;29;20035;-84
2021/07/18 07:50:24;;;;;;;0.73;0.73;;;;;;;37.25;30.75;97855.06;4937246;29;20542;-85
2021/07/18 07:52:50;;;;;;;1.92;1.83;;;;;;;37.72;31.05;97869.69;4954610;29;20046;-82
2021/07/18 07:55:16;;;;;;;9.43;1.75;;;;;;;38.32;28.90;97856.72;4937531;29;20095;-86
2021/07/18 07:57:41;;;;;;;1.88;0.98;;;;;;;38.25;30.54;97875.13;4937730;29;20035;-83
2021/07/18 08:00:13;;;;;;;1.30;1.20;;;;;;;37.85;30.50;97863.13;4937599;29;20035;-84
2021/07/18 08:02:39;;;;;;;1.80;1.20;;;;;;;36.77;30.54;97830.22;4937463;29;20030;-84
2021/07/18 08:05:06;;;;;;;2.28;1.10;;;;;;;37.22;31.27;97858.47;4937190;29;20027;-84
2021/07/18 08:07:32;;;;;;;0.60;0.60;;;;;;;36.59;32.57;97850.09;4937427;29;20039;-86
2021/07/18 08:09:57;;;;;;;11.18;1.52;;;;;;;35.44;34.99;97864.47;4954578;29;20035;-84
2021/07/18 08:12:23;;;;;;;1.60;0.93;;;;;;;34.59;36.33;97865.03;4937398;29;20496;-83
2021/07/18 08:14:48;;;;;;;0.77;0.77;;;;;;;33.91;37.27;97842.09;4937446;29;20518;-83
2021/07/18 08:17:14;;;;;;;1.30;1.20;;;;;;;33.42;39.36;97854.59;4954416;29;20077;-85
2021/07/18 08:19:41;;;;;;;1.35;0.68;;;;;;;32.61;41.23;97841.19;4954202;29;20035;-82
2021/07/18 08:22:08;;;;;;;1.45;1.30;;;;;;;32.58;42.01;97838.81;4937540;29;20579;-83
2021/07/18 08:24:34;;;;;;;1.55;1.25;;;;;;;32.29;43.21;97808.25;4937211;29;20399;-83
2021/07/18 08:26:59;;;;;;;0.95;0.73;;;;;;;32.76;41.61;97842.19;4937133;29;20023;-83
2021/07/18 08:29:26;;;;;;;1.00;0.95;;;;;;;32.41;40.79;97839.78;4937313;29;20027;-84
2021/07/18 08:31:56;;;;;;;1.97;1.17;;;;;;;31.78;42.33;97837.38;4937157;29;20031;-84
2021/07/18 08:34:22;;;;;;;1.35;1.35;;;;;;;31.51;42.43;97844.00;4937279;29;20341;-84
2021/07/18 08:36:48;;;;;;;1.83;1.15;;;;;;;31.32;44.02;97823.28;4937134;29;20047;-82
2021/07/18 08:39:13;;;;;;;0.57;0.57;;;;;;;31.20;46.52;97833.78;4937505;29;20027;-83
2021/07/18 08:41:43;;;;;;;0.63;0.63;;;;;;;30.83;46.90;97841.66;4937284;29;20541;-83
2021/07/18 08:44:12;;;;;;;0.90;0.90;;;;;;;30.89;45.11;97820.03;4954295;29;20019;-83
2021/07/18 08:46:37;;;;;;;1.33;1.15;;;;;;;30.96;45.59;97813.47;4937004;29;20404;-82
2021/07/18 08:49:03;;;;;;;1.17;1.08;;;;;;;30.62;45.49;97797.31;4937451;29;20024;-84
2021/07/18 08:51:28;;;;;;;0.75;0.75;;;;;;;30.71;46.90;97819.41;4937173;29;20034;-82
2021/07/18 08:53:55;;;;;;;2.13;1.17;;;;;;;30.67;46.64;97833.38;4937168;29;20483;-83
2021/07/18 08:56:22;;;;;;;8.00;1.60;;;;;;;30.70;46.83;97817.91;4954439;28;20035;-82
2021/07/18 08:58:48;;;;;;;0.82;0.82;;;;;;;30.70;46.29;97814.28;4940699;29;20034;-84
2021/07/18 09:01:14;;;;;;;0.93;0.93;;;;;;;30.50;47.02;97770.00;4940664;29;20451;-84
2021/07/18 09:03:39;;;;;;;2.45;1.40;;;;;;;30.93;45.42;97813.88;4941212;29;20391;-83
2021/07/18 09:06:08;;;;;;;1.20;0.75;;;;;;;30.94;45.69;97804.72;4957861;29;20035;-83
2021/07/18 09:08:40;;;;;;;4.25;1.73;;;;;;;31.58;47.30;97805.22;4957838;29;20027;-84
2021/07/18 09:11:18;;;;;;;2.38;1.52;;;;;;;31.50;43.91;97788.25;4940662;29;20121;-86
2021/07/18 09:13:58;;;;;;;0.82;0.82;;;;;;;31.44;43.61;97796.38;4940610;29;20550;-84
2021/07/18 09:16:29;;;;;;;2.05;1.75;;;;;;;31.13;46.42;97787.66;4940498;29;20514;-84
2021/07/18 09:19:13;;;;;;;5.10;0.68;;;;;;;31.09;43.95;97755.22;4940405;29;20100;-84
2021/07/18 09:21:39;;;;;;;0.85;0.75;;;;;;;31.13;43.29;97784.06;4940459;29;20039;-84
2021/07/18 09:24:21;;;;;;;1.00;1.00;;;;;;;30.83;45.29;97798.88;4957238;29;20034;-83
2021/07/18 09:27:19;;;;;;;1.65;0.77;;;;;;;30.53;45.66;97791.59;4940428;29;20031;-82
2021/07/18 09:29:47;;;;;;;27.63;1.17;;;;;;;30.64;46.10;97805.28;4934612;29;20046;-83
2021/07/18 09:32:18;;;;;;;3.60;2.22;;;;;;;30.75;46.15;97793.28;4940307;29;20063;-85
2021/07/18 09:34:47;;;;;;;1.38;1.27;;;;;;;30.84;45.42;97788.97;4957900;29;20027;-82
2021/07/18 09:37:15;;;;;;;1.20;0.93;;;;;;;31.12;46.37;97789.00;4956939;29;20574;-84
2021/07/18 09:39:47;;;;;;;4.53;2.33;;;;;;;31.32;45.89;97763.31;4940149;29;20039;-83
2021/07/18 09:42:28;;;;;;;1.10;1.05;;;;;;;31.38;46.22;97787.34;4940197;29;20418;-84
2021/07/18 09:44:54;;;;;;;0.38;0.38;;;;;;;31.42;47.27;97756.22;4939932;29;20027;-83
2021/07/18 09:47:19;;;;;;;0.93;0.90;;;;;;;31.38;48.13;97738.06;4957044;29;20094;-84
2021/07/18 09:49:45;;;;;;;1.30;1.02;;;;;;;31.26;45.54;97777.91;4939880;29;20509;-84
2021/07/18 09:52:32;;;;;;;6.47;2.10;;;;;;;31.08;44.16;97773.69;4939862;29;20031;-85
2021/07/18 09:54:58;;;;;;;;;;;;;;;30.81;44.83;97782.34;4957610;29;20488;-86
2021/07/18 09:57:42;;;;;;;2.55;1.25;;;;;;;30.60;45.00;97765.81;4939767;29;19918;-83
2021/07/18 10:00:10;;;;;;;1.58;1.13;;;;;;;30.47;45.44;97720.59;4957023;29;20035;-82
2021/07/18 10:02:39;;;;;;;0.70;0.70;;;;;;;30.68;45.56;97749.28;4956818;29;20388;-82
2021/07/18 10:05:06;;;;;;;0.70;0.70;;;;;;;30.81;44.37;97738.81;4939575;29;20024;-83
2021/07/18 10:07:35;;;;;;;0.63;0.63;;;;;;;30.74;43.10;97752.59;4939196;29;20023;-84
2021/07/18 10:10:04;;;;;;;1.17;0.90;;;;;;;30.63;44.08;97746.75;4939404;29;20042;-84
2021/07/18 10:12:31;;;;;;;2.55;2.33;;;;;;;30.74;44.13;97746.91;4939303;29;20089;-83
2021/07/18 10:14:58;;;;;;;3.88;0.82;;;;;;;30.78;44.52;97728.59;4939511;29;20027;-82
2021/07/18 10:17:24;;;;;;;0.60;0.60;;;;;;;31.01;42.74;97760.28;4939541;29;20034;-83
2021/07/18 10:19:50;;;;;;;13.23;2.53;;;;;;;30.83;44.54;97748.28;4956688;29;20043;-84
2021/07/18 10:22:18;;;;;;;0.43;0.43;;;;;;;30.77;44.31;97727.84;4939244;29;20027;-85
2021/07/18 10:24:45;;;;;;;1.17;0.77;;;;;;;30.79;44.24;97725.16;4956463;29;20031;-84
2021/07/18 10:27:12;;;;;;;1.02;1.00;;;;;;;30.60;44.65;97720.19;4956377;29;20031;-84
2021/07/18 10:29:38;;;;;;;1.07;0.90;;;;;;;30.63;45.47;97729.63;4939058;29;20035;-85
2021/07/18 10:32:07;;;;;;;0.80;0.80;;;;;;;30.70;46.77;97740.91;4938967;29;20365;-83
2021/07/18 10:34:35;;;;;;;1.30;0.93;;;;;;;30.70;46.94;97723.78;4938986;29;20110;-83
2021/07/18 10:37:09;;;;;;;2.92;1.50;;;;;;;30.52;46.49;97696.00;4955755;28;20058;-86
2021/07/18 10:39:37;;;;;;;0.75;0.75;;;;;;;31.01;46.05;97743.16;4939286;29;20031;-84
2021/07/18 10:42:13;;;;;;;1.48;1.38;;;;;;;31.28;45.24;97752.38;4939018;29;20109;-82
2021/07/18 10:44:48;;;;;;;7.75;2.25;;;;;;;31.07;47.45;97715.88;4939029;29;20058;-83
2021/07/18 10:47:15;;;;;;;1.48;1.13;;;;;;;31.34;46.67;97755.66;4938928;29;20071;-82
2021/07/18 10:49:58;;;;;;;1.20;1.02;;;;;;;31.20;45.46;97731.03;4938338;29;20086;-85
2021/07/18 10:52:36;;;;;;;2.88;2.13;;;;;;;30.78;46.42;97717.19;4939262;29;20066;-86
2021/07/18 10:55:21;;;;;;;2.05;1.90;;;;;;;31.18;46.44;97736.59;4956272;29;20078;-84
2021/07/18 10:57:53;;;;;;;0.75;0.75;;;;;;;31.18;44.35;97737.34;4938886;29;20063;-85
2021/07/18 11:00:23;;;;;;;0.57;0.57;;;;;;;31.28;44.80;97743.06;4939456;29;20042;-86
2021/07/18 11:03:11;;;;;;;1.17;1.08;;;;;;;31.19;44.03;97730.28;4956020;29;20110;-86
2021/07/18 11:05:44;;;;;;;;;;;;;;;31.11;44.50;97724.72;4939550;29;20392;-86
2021/07/18 11:08:10;;;;;;;1.67;1.30;;;;;;;31.28;45.64;97723.81;4938548;29;19911;-84
2021/07/18 11:10:54;;;;;;;0.43;0.43;;;;;;;31.31;45.08;97711.19;4938573;29;20126;-86
2021/07/18 11:13:21;;;;;;;0.50;0.50;;;;;;;31.21;43.10;97704.75;4938886;29;20027;-86
2021/07/18 11:15:47;;;;;;;2.10;1.13;;;;;;;31.14;41.61;97699.94;4938778;29;20066;-85
2021/07/18 11:18:15;;;;;;;0.90;0.73;;;;;;;31.21;41.05;97695.44;4938659;29;20059;-86
2021/07/18 11:20:40;;;;;;;;;;;;;;;31.33;43.32;97707.72;4938103;29;20039;-85
2021/07/18 11:23:07;;;;;;;0.50;0.50;;;;;;;31.25;43.00;97707.13;4955358;29;19968;-86
2021/07/18 11:25:59;;;;;;;4.28;1.52;;;;;;;31.15;42.85;97709.25;4938232;29;20102;-85
2021/07/18 11:28:28;;;;;;;1.08;1.05;;;;;;;31.34;44.99;97712.84;4955768;29;20039;-84
2021/07/18 11:31:12;;;;;;;1.10;0.88;;;;;;;31.33;45.19;97702.03;4938246;29;20035;-86
2021/07/18 11:33:40;;;;;;;0.73;0.73;;;;;;;31.49;45.19;97691.75;4938606;29;20463;-87